Leander — DD5959 — position and weather

sailwx.info

Track history (hours):
 
Tides and Currents Weather Stations Pressure Air Temp Water Temp Dewpoint Dewpoint Depression Visibility Wind Speed Wind Dir Waves Ship Positions

Leander

Last reported at 2015-Aug-04 16:25 UTC. Time now 2015-Aug-31 21:50 UTC.
Position N 37°05' W 008°07'.
Warning: this ship's position is 27 days out of date.

Length 15 m.

Type: Sailing vessel. MMSI: 211480070.

Date/timePositionNaut miles runAvg speedWind from/ knotsBaromVisibWave heightAir tempDewpointWater temp
2015-Aug-04 16:25N 37°05' W 008°07'2 2.0
2015-Aug-04 15:31N 37°04' W 008°09'2 2.3
2015-Aug-04 14:30N 37°04' W 008°12'3 1.4
2015-Aug-04 12:13N 37°05' W 008°16'2 3.3
2015-Aug-04 11:32N 37°05' W 008°13'5 0.1
2015-Aug-02 17:24N 37°05' W 008°07'0 0.0
2015-Aug-02 16:27N 37°05' W 008°07'1 0.7
2015-Aug-02 15:33N 37°04' W 008°07'3 3.1
2015-Aug-02 14:33N 37°01' W 008°07'2 1.7
2015-Aug-02 13:32N 36°59' W 008°08'3 2.8
2015-Aug-02 12:31N 37°02' W 008°08'0 0.3
2015-Aug-02 11:31N 37°02' W 008°08'1 0.9
2015-Aug-02 10:32N 37°03' W 008°08'2 0.1
2015-Aug-01 17:29N 37°05' W 008°07'0 0.0
2015-Aug-01 16:26N 37°05' W 008°07'0 0.0
2015-Aug-01 15:23N 37°05' W 008°07'2 2.3
2015-Aug-01 14:32N 37°03' W 008°06'3 3.2
2015-Aug-01 13:32N 36°60' W 008°06'4 3.8
2015-Aug-01 12:31N 36°56' W 008°04'4 3.6
2015-Aug-01 11:31N 36°59' W 008°07'5 4.8
2015-Aug-01 10:30N 37°04' W 008°08'1 0.1
2015-Jul-31 13:08N 37°05' W 008°07'1 0.9
2015-Jul-31 12:30N 37°04' W 008°07'1 1.1
2015-Jul-31 11:28N 37°03' W 008°07'  
Track history (hours):
 
Tides and Currents Weather Stations Pressure Air Temp Water Temp Dewpoint Dewpoint Depression Visibility Wind Speed Wind Dir Waves Ship Positions

Leander

Last reported at 2015-Aug-04 16:25 UTC. Time now 2015-Aug-31 21:50 UTC.
Position N 37°05' W 008°07'.
Warning: this ship's position is 27 days out of date.

Length 15 m.

Type: Sailing vessel. MMSI: 211480070.

Date/timePositionNaut miles runAvg speedWind from/ knotsBaromVisibWave heightAir tempDewpointWater temp
2015-Aug-04 16:25N 37°05' W 008°07'2 2.0
2015-Aug-04 15:31N 37°04' W 008°09'2 2.3
2015-Aug-04 14:30N 37°04' W 008°12'3 1.4
2015-Aug-04 12:13N 37°05' W 008°16'2 3.3
2015-Aug-04 11:32N 37°05' W 008°13'5 0.1
2015-Aug-02 17:24N 37°05' W 008°07'0 0.0
2015-Aug-02 16:27N 37°05' W 008°07'1 0.7
2015-Aug-02 15:33N 37°04' W 008°07'3 3.1
2015-Aug-02 14:33N 37°01' W 008°07'2 1.7
2015-Aug-02 13:32N 36°59' W 008°08'3 2.8
2015-Aug-02 12:31N 37°02' W 008°08'0 0.3
2015-Aug-02 11:31N 37°02' W 008°08'1 0.9
2015-Aug-02 10:32N 37°03' W 008°08'2 0.1
2015-Aug-01 17:29N 37°05' W 008°07'0 0.0
2015-Aug-01 16:26N 37°05' W 008°07'0 0.0
2015-Aug-01 15:23N 37°05' W 008°07'2 2.3
2015-Aug-01 14:32N 37°03' W 008°06'3 3.2
2015-Aug-01 13:32N 36°60' W 008°06'4 3.8
2015-Aug-01 12:31N 36°56' W 008°04'4 3.6
2015-Aug-01 11:31N 36°59' W 008°07'5 4.8
2015-Aug-01 10:30N 37°04' W 008°08'1 0.1
2015-Jul-31 13:08N 37°05' W 008°07'1 0.9
2015-Jul-31 12:30N 37°04' W 008°07'1 1.1
2015-Jul-31 11:28N 37°03' W 008°07'  

Dump ship's entire track history